Time;durP1;ratioP1;P1;durP2;ratioP2;P2;SDS_P1;SDS_P2;PMS_P1;PMS_P2;Temp;Humidity;BMP_temperature;BMP_pressure;BME280_temperature;BME280_humidity;BME280_pressure;Samples;Min_cycle;Max_cycle;Signal;HPM_P1;HPM_P2
2023/07/02 00:01:47;;;;;;;4.93;2.40;;;;;;;15.99;100.00;99772.72;5007916;28;20196;-67
2023/07/02 00:04:19;;;;;;;5.00;2.37;;;;;;;15.96;100.00;99777.22;5005752;28;20197;-66
2023/07/02 00:06:50;;;;;;;3.27;2.10;;;;;;;15.88;100.00;99773.81;5002521;28;20204;-67
2023/07/02 00:09:16;;;;;;;5.10;2.50;;;;;;;15.73;100.00;99771.44;5000418;28;20204;-67
2023/07/02 00:11:45;;;;;;;2.90;2.30;;;;;;;15.65;100.00;99780.47;5005413;28;20216;-67
2023/07/02 00:14:13;;;;;;;5.37;2.13;;;;;;;15.65;100.00;99788.47;5005469;28;20672;-67
2023/07/02 00:16:45;;;;;;;5.60;2.50;;;;;;;15.58;100.00;99781.44;5004235;28;20661;-66
2023/07/02 00:19:13;;;;;;;4.70;2.10;;;;;;;15.47;100.00;99786.06;5000642;28;20698;-66
2023/07/02 00:21:40;;;;;;;2.73;2.33;;;;;;;15.30;100.00;99777.44;5003693;28;20584;-66
2023/07/02 00:24:09;;;;;;;5.03;2.10;;;;;;;15.20;100.00;99791.81;5006575;28;20198;-67
2023/07/02 00:26:40;;;;;;;3.77;2.43;;;;;;;15.14;100.00;99792.78;5003759;28;20196;-67
2023/07/02 00:29:09;;;;;;;3.90;2.20;;;;;;;15.06;100.00;99789.34;4999732;28;20230;-66
2023/07/02 00:31:35;;;;;;;2.93;2.33;;;;;;;15.01;100.00;99786.75;4999242;28;20311;-66
2023/07/02 00:34:02;;;;;;;3.63;2.53;;;;;;;14.94;100.00;99790.44;5001605;28;20214;-67
2023/07/02 00:36:30;;;;;;;4.87;2.00;;;;;;;14.88;100.00;99793.19;5003781;28;20700;-66
2023/07/02 00:38:57;;;;;;;4.53;2.43;;;;;;;14.71;100.00;99782.72;5002623;28;20232;-67
2023/07/02 00:41:24;;;;;;;2.33;2.10;;;;;;;14.76;100.00;99782.66;5003667;28;20275;-67
2023/07/02 00:43:54;;;;;;;4.07;2.30;;;;;;;14.65;100.00;99773.94;5003452;28;20288;-66
2023/07/02 00:46:22;;;;;;;8.03;2.30;;;;;;;14.78;100.00;99778.19;4999963;28;20200;-68
2023/07/02 00:48:50;;;;;;;5.43;2.20;;;;;;;14.70;100.00;99780.06;5000487;28;20282;-68
2023/07/02 00:51:19;;;;;;;2.90;2.20;;;;;;;14.62;100.00;99774.84;5001931;28;20216;-68
2023/07/02 00:53:47;;;;;;;5.20;2.40;;;;;;;14.55;100.00;99762.50;4997697;28;20635;-67
2023/07/02 00:56:15;;;;;;;3.07;2.20;;;;;;;14.44;100.00;99767.09;4996047;28;20200;-68
2023/07/02 00:58:46;;;;;;;5.80;2.70;;;;;;;14.35;100.00;99769.81;5001291;28;20582;-67
2023/07/02 01:01:15;;;;;;;7.10;2.30;;;;;;;14.33;100.00;99772.50;5001739;28;20207;-67
2023/07/02 01:03:59;;;;;;;3.50;1.93;;;;;;;14.33;100.00;99780.50;5001968;28;20695;-66
2023/07/02 01:06:34;;;;;;;4.40;2.10;;;;;;;14.23;100.00;99784.19;4996498;28;20202;-67
2023/07/02 01:09:05;;;;;;;5.97;2.73;;;;;;;14.23;100.00;99784.19;5004370;28;20222;-66
2023/07/02 01:11:40;;;;;;;2.70;2.50;;;;;;;14.16;100.00;99786.94;5004593;28;20316;-66
2023/07/02 01:14:18;;;;;;;5.43;2.57;;;;;;;14.26;100.00;99788.59;5001296;28;20206;-66
2023/07/02 01:16:47;;;;;;;3.93;2.53;;;;;;;14.20;100.00;99793.97;5003634;28;20474;-67
2023/07/02 01:19:19;;;;;;;4.47;2.27;;;;;;;14.24;100.00;99785.06;4998163;28;20240;-68
2023/07/02 01:21:48;;;;;;;5.90;2.60;;;;;;;14.23;100.00;99776.19;5003312;28;20642;-68
2023/07/02 01:24:16;;;;;;;4.07;2.50;;;;;;;14.29;100.00;99781.44;5000220;28;20196;-68
2023/07/02 01:26:42;;;;;;;8.07;3.00;;;;;;;14.29;100.00;99780.56;4996637;28;20200;-66
2023/07/02 01:29:16;;;;;;;4.27;3.00;;;;;;;14.35;100.00;99780.47;4994513;28;20203;-67
2023/07/02 01:31:43;;;;;;;3.43;2.67;;;;;;;14.21;100.00;99783.31;5004253;28;20254;-68
2023/07/02 01:34:10;;;;;;;5.67;4.00;;;;;;;14.27;100.00;99793.00;5003013;28;20200;-68
2023/07/02 01:36:37;;;;;;;6.03;3.47;;;;;;;14.12;100.00;99799.41;5003146;28;20200;-68
2023/07/02 01:39:04;;;;;;;5.23;2.80;;;;;;;14.16;100.00;99803.78;4996881;28;20299;-68
2023/07/02 01:41:45;;;;;;;3.60;2.53;;;;;;;14.03;100.00;99794.16;5006351;28;20193;-67
2023/07/02 01:44:12;;;;;;;5.70;2.60;;;;;;;14.16;100.00;99797.56;5009372;28;20230;-67
2023/07/02 01:46:38;;;;;;;7.77;3.00;;;;;;;14.01;100.00;99803.97;5000449;28;20204;-69
2023/07/02 01:49:04;;;;;;;7.47;2.93;;;;;;;13.87;100.00;99793.41;5005932;28;20310;-68
2023/07/02 01:51:31;;;;;;;5.80;3.70;;;;;;;13.79;100.00;99796.16;4997982;28;20667;-69
2023/07/02 01:53:57;;;;;;;7.03;3.17;;;;;;;13.70;100.00;99809.56;5006160;28;20259;-68
2023/07/02 01:56:24;;;;;;;6.27;3.23;;;;;;;13.63;100.00;99802.53;5010317;28;20250;-67
2023/07/02 01:58:50;;;;;;;7.73;3.20;;;;;;;13.55;100.00;99808.78;5006473;28;20723;-69
2023/07/02 02:01:17;;;;;;;6.67;3.10;;;;;;;13.40;100.00;99807.13;5006892;28;20608;-67
2023/07/02 02:03:43;;;;;;;5.93;3.03;;;;;;;13.30;100.00;99805.44;5007690;28;20200;-68
2023/07/02 02:06:10;;;;;;;7.90;3.70;;;;;;;13.29;100.00;99803.69;5009517;28;20258;-68
2023/07/02 02:08:36;;;;;;;4.57;2.80;;;;;;;13.34;100.00;99797.44;5003084;28;20303;-69
2023/07/02 02:11:03;;;;;;;6.53;2.93;;;;;;;13.27;100.00;99803.69;5002047;28;20312;-68
2023/07/02 02:13:29;;;;;;;8.07;3.00;;;;;;;13.31;100.00;99804.53;5004600;28;20205;-68
2023/07/02 02:15:55;;;;;;;6.83;3.00;;;;;;;13.26;100.00;99806.34;5010617;28;20200;-68
2023/07/02 02:18:22;;;;;;;7.27;3.30;;;;;;;13.24;100.00;99819.66;5009126;28;20323;-68
2023/07/02 02:20:49;;;;;;;6.43;3.60;;;;;;;13.22;100.00;99816.13;5006291;28;20203;-68
2023/07/02 02:23:16;;;;;;;5.67;3.17;;;;;;;13.26;100.00;99817.88;5006080;28;20209;-70
2023/07/02 02:25:42;;;;;;;4.50;3.10;;;;;;;13.15;100.00;99819.66;4998733;28;20611;-69
2023/07/02 02:28:08;;;;;;;5.73;3.30;;;;;;;13.08;100.00;99823.25;5007616;28;20220;-69
2023/07/02 02:30:35;;;;;;;8.67;3.97;;;;;;;13.12;100.00;99815.25;5002174;28;20231;-70
2023/07/02 02:33:01;;;;;;;6.00;3.30;;;;;;;13.06;100.00;99814.41;5004516;28;20208;-69
2023/07/02 02:35:28;;;;;;;7.07;3.57;;;;;;;13.00;100.00;99819.75;5001168;28;20699;-70
2023/07/02 02:37:54;;;;;;;6.90;3.73;;;;;;;13.10;100.00;99829.44;5000800;28;20244;-71
2023/07/02 02:40:21;;;;;;;6.73;3.90;;;;;;;13.06;100.00;99830.34;5008023;28;20226;-72
2023/07/02 02:42:47;;;;;;;6.00;3.63;;;;;;;12.98;100.00;99840.16;5005238;28;20189;-71
2023/07/02 02:45:14;;;;;;;6.77;3.40;;;;;;;12.93;100.00;99832.22;4994840;28;20223;-70
2023/07/02 02:47:40;;;;;;;7.23;3.83;;;;;;;12.92;100.00;99841.06;4994866;28;20217;-72
2023/07/02 02:50:09;;;;;;;5.43;3.37;;;;;;;12.90;100.00;99836.66;5006258;28;20570;-69
2023/07/02 02:52:35;;;;;;;9.10;3.43;;;;;;;12.91;100.00;99843.75;5003476;28;20223;-69
2023/07/02 02:55:02;;;;;;;9.50;4.00;;;;;;;12.96;100.00;99834.84;5006924;28;20192;-71
2023/07/02 02:57:29;;;;;;;7.20;4.20;;;;;;;13.01;100.00;99833.03;5005835;28;20258;-70
2023/07/02 02:59:55;;;;;;;6.03;3.60;;;;;;;13.07;100.00;99835.66;5002928;28;20200;-70
2023/07/02 03:02:21;;;;;;;8.03;3.87;;;;;;;13.36;100.00;99840.84;5005899;28;20668;-69
2023/07/02 03:04:49;;;;;;;6.67;3.67;;;;;;;13.51;100.00;99838.97;5003341;28;20230;-68
2023/07/02 03:07:16;;;;;;;6.33;3.93;;;;;;;13.56;100.00;99839.81;4998928;28;20216;-71
2023/07/02 03:09:42;;;;;;;6.40;3.80;;;;;;;13.62;100.00;99851.31;5002891;28;20246;-69
2023/07/02 03:12:09;;;;;;;8.77;4.03;;;;;;;13.58;100.00;99849.53;5001849;28;20227;-68
2023/07/02 03:14:35;;;;;;;6.90;3.90;;;;;;;13.67;100.00;99846.84;5002026;28;20201;-69
2023/07/02 03:17:02;;;;;;;8.33;3.97;;;;;;;13.79;100.00;99841.41;5005907;28;20200;-71
2023/07/02 03:19:29;;;;;;;9.73;4.13;;;;;;;13.76;100.00;99849.41;5004986;28;20242;-69
2023/07/02 03:21:55;;;;;;;9.07;4.23;;;;;;;13.78;100.00;99852.94;5009321;28;20204;-70
2023/07/02 03:24:22;;;;;;;6.83;3.80;;;;;;;13.75;100.00;99844.09;5001052;28;20760;-69
2023/07/02 03:26:48;;;;;;;11.17;4.93;;;;;;;13.89;100.00;99850.19;5001889;28;20196;-69
2023/07/02 03:29:15;;;;;;;9.43;4.50;;;;;;;13.87;100.00;99840.44;5005499;28;20200;-68
2023/07/02 03:31:42;;;;;;;9.10;4.57;;;;;;;13.89;100.00;99847.53;4997407;28;20763;-67
2023/07/02 03:34:10;;;;;;;12.40;4.87;;;;;;;13.93;100.00;99859.91;4993379;28;20609;-68
2023/07/02 03:36:37;;;;;;;9.80;4.70;;;;;;;13.94;100.00;99852.81;5006897;28;20212;-68
2023/07/02 03:39:04;;;;;;;8.03;4.50;;;;;;;13.93;100.00;99849.25;5002334;28;20244;-67
2023/07/02 03:41:34;;;;;;;10.63;5.47;;;;;;;13.94;100.00;99852.81;5000507;28;20193;-68
2023/07/02 03:44:01;;;;;;;9.73;4.90;;;;;;;13.95;100.00;99854.56;4993503;28;20807;-68
2023/07/02 03:46:27;;;;;;;10.97;4.87;;;;;;;14.04;100.00;99862.50;5007476;28;20215;-67
2023/07/02 03:48:54;;;;;;;10.47;4.60;;;;;;;14.05;100.00;99869.59;5005770;28;20223;-67
2023/07/02 03:51:20;;;;;;;7.57;4.43;;;;;;;14.13;100.00;99866.84;5002031;28;20212;-66
2023/07/02 03:53:46;;;;;;;9.53;5.40;;;;;;;14.29;100.00;99872.00;4998039;28;20217;-67
2023/07/02 03:56:13;;;;;;;10.23;5.20;;;;;;;14.30;100.00;99875.53;5002533;28;20918;-68
2023/07/02 03:58:40;;;;;;;12.47;5.73;;;;;;;14.38;100.00;99871.00;5006674;28;20227;-68
2023/07/02 04:01:07;;;;;;;7.67;4.77;;;;;;;14.35;100.00;99879.03;5004006;28;20218;-69
2023/07/02 04:03:33;;;;;;;9.40;5.13;;;;;;;14.35;100.00;99879.91;5000907;28;20211;-68
2023/07/02 04:06:00;;;;;;;10.57;4.83;;;;;;;14.53;100.00;99875.34;5000905;28;20247;-68
2023/07/02 04:08:28;;;;;;;11.93;5.37;;;;;;;14.53;100.00;99878.03;4994017;28;20319;-68
2023/07/02 04:10:54;;;;;;;10.60;5.40;;;;;;;14.53;100.00;99878.03;5005179;28;20228;-69
2023/07/02 04:13:20;;;;;;;10.13;5.17;;;;;;;14.55;100.00;99877.09;5005671;28;20290;-69
2023/07/02 04:15:47;;;;;;;13.77;5.70;;;;;;;14.65;100.00;99878.75;5002934;28;20201;-67
2023/07/02 04:18:14;;;;;;;12.37;6.20;;;;;;;14.69;100.00;99884.94;5002343;28;20274;-67
2023/07/02 04:20:40;;;;;;;12.47;5.83;;;;;;;14.77;100.00;99880.38;5002473;28;20196;-68
2023/07/02 04:23:07;;;;;;;12.97;6.53;;;;;;;14.83;100.00;99885.66;5004136;28;20208;-68
2023/07/02 04:25:33;;;;;;;10.60;6.07;;;;;;;14.96;100.00;99889.06;4998456;28;20197;-67
2023/07/02 04:28:18;;;;;;;10.77;5.80;;;;;;;15.01;100.00;99892.56;4996002;28;20215;-68
2023/07/02 04:30:46;;;;;;;12.17;5.97;;;;;;;15.12;100.00;99897.75;4994311;28;20197;-67
2023/07/02 04:33:14;;;;;;;11.77;5.90;;;;;;;15.23;100.00;99899.38;5006869;28;20637;-68
2023/07/02 04:35:40;;;;;;;15.37;6.53;;;;;;;15.35;100.00;99901.00;5001785;28;20618;-67
2023/07/02 04:38:07;;;;;;;10.40;6.33;;;;;;;15.46;100.00;99908.84;4997069;28;20239;-68
2023/07/02 04:40:33;;;;;;;11.87;6.50;;;;;;;15.55;100.00;99906.03;4998090;28;20203;-69
2023/07/02 04:42:59;;;;;;;14.03;6.40;;;;;;;15.63;100.00;99899.75;5007682;28;20211;-68
2023/07/02 04:45:31;;;;;;;12.03;6.33;;;;;;;15.71;100.00;99909.41;5003833;28;20669;-69
2023/07/02 04:48:00;;;;;;;12.27;6.00;;;;;;;15.84;100.00;99911.84;5001961;28;20227;-69
2023/07/02 04:50:27;;;;;;;10.90;5.73;;;;;;;15.83;99.66;99911.88;4996234;28;20251;-68
2023/07/02 04:52:54;;;;;;;13.77;6.17;;;;;;;15.81;99.82;99914.56;4994953;28;20223;-69
2023/07/02 04:55:21;;;;;;;11.43;5.60;;;;;;;15.76;99.40;99919.13;5005692;28;20427;-67
2023/07/02 04:57:47;;;;;;;11.80;6.80;;;;;;;15.77;99.93;99917.31;5004531;28;20772;-68
2023/07/02 05:00:14;;;;;;;11.37;6.37;;;;;;;15.64;99.19;99920.19;5000202;28;20287;-68
2023/07/02 05:02:40;;;;;;;12.67;5.87;;;;;;;15.68;99.63;99926.38;4997195;28;20299;-67
2023/07/02 05:05:07;;;;;;;10.97;6.03;;;;;;;15.63;99.65;99928.22;4999009;28;20210;-69
2023/07/02 05:07:33;;;;;;;11.43;5.97;;;;;;;15.63;100.00;99921.09;5004684;28;20254;-68
2023/07/02 05:10:00;;;;;;;11.23;5.60;;;;;;;15.60;100.00;99933.56;4998224;28;20326;-67
2023/07/02 05:12:26;;;;;;;11.63;5.77;;;;;;;15.60;100.00;99930.91;4999050;28;20723;-68
2023/07/02 05:14:53;;;;;;;13.40;6.10;;;;;;;15.57;100.00;99931.78;4999677;28;20192;-69
2023/07/02 05:17:19;;;;;;;14.17;5.77;;;;;;;15.64;100.00;99938.88;5003705;28;20266;-68
2023/07/02 05:19:46;;;;;;;10.70;5.83;;;;;;;15.84;100.00;99935.91;5001107;28;20318;-68
2023/07/02 05:22:12;;;;;;;11.03;6.10;;;;;;;16.16;99.74;99937.19;5001021;28;20283;-67
2023/07/02 05:24:40;;;;;;;12.60;6.13;;;;;;;16.42;97.02;99936.75;5002125;28;20232;-69
2023/07/02 05:27:07;;;;;;;13.30;6.53;;;;;;;16.73;95.13;99935.28;5002394;28;20311;-68
2023/07/02 05:29:33;;;;;;;11.17;5.80;;;;;;;17.07;92.14;99929.28;4997637;28;20609;-67
2023/07/02 05:31:59;;;;;;;8.80;5.27;;;;;;;17.33;91.17;99934.97;5003457;28;20224;-67
2023/07/02 05:34:26;;;;;;;11.03;6.13;;;;;;;17.38;90.51;99933.06;5000131;28;20208;-68
2023/07/02 05:36:52;;;;;;;10.87;6.20;;;;;;;17.67;87.73;99942.31;5008773;28;20657;-68
2023/07/02 05:39:19;;;;;;;16.30;6.03;;;;;;;17.88;87.02;99943.59;5003751;28;20254;-68
2023/07/02 05:41:45;;;;;;;10.87;5.87;;;;;;;17.83;85.75;99933.88;5005264;28;20220;-68
2023/07/02 05:44:11;;;;;;;14.20;6.83;;;;;;;17.87;86.35;99944.50;5006976;28;20192;-68
2023/07/02 05:46:38;;;;;;;12.93;6.60;;;;;;;17.79;86.36;99933.97;5009647;28;20199;-68
2023/07/02 05:49:05;;;;;;;14.50;6.93;;;;;;;18.10;86.38;99936.81;5009183;28;20231;-68
2023/07/02 05:51:32;;;;;;;11.40;6.27;;;;;;;18.28;84.52;99933.66;5001149;28;20232;-68
2023/07/02 05:53:58;;;;;;;14.50;6.77;;;;;;;18.27;82.82;99937.25;5009295;28;20204;-68
2023/07/02 05:56:25;;;;;;;11.77;6.60;;;;;;;18.55;81.50;99941.94;5007238;28;20707;-68
2023/07/02 05:58:51;;;;;;;14.40;6.93;;;;;;;18.99;78.90;99944.31;5002487;28;20224;-68
2023/07/02 06:01:17;;;;;;;14.70;7.00;;;;;;;19.04;78.58;99937.00;5007876;28;20200;-68
2023/07/02 06:03:45;;;;;;;11.63;6.77;;;;;;;19.15;78.54;99946.56;5005326;28;20661;-68
2023/07/02 06:06:12;;;;;;;15.80;7.43;;;;;;;19.35;76.07;99950.44;5008068;28;20197;-68
2023/07/02 06:08:38;;;;;;;14.77;7.30;;;;;;;19.52;74.69;99947.22;5008600;28;20230;-68
2023/07/02 06:11:04;;;;;;;16.17;7.60;;;;;;;19.53;75.84;99954.41;5002790;28;20562;-68
2023/07/02 06:13:31;;;;;;;12.80;7.33;;;;;;;19.81;74.74;99959.81;5008177;28;20270;-68
2023/07/02 06:15:57;;;;;;;16.10;7.93;;;;;;;19.91;72.86;99952.34;5002561;28;20584;-68
2023/07/02 06:18:24;;;;;;;16.02;8.00;;;;;;;19.84;74.06;99950.78;5006873;28;20611;-68
2023/07/02 06:20:51;;;;;;;16.45;8.07;;;;;;;19.69;73.08;99955.72;5008741;28;20196;-68
2023/07/02 06:23:17;;;;;;;14.70;7.80;;;;;;;19.68;74.97;99961.13;5007527;28;20201;-68
2023/07/02 06:25:44;;;;;;;17.90;7.93;;;;;;;20.00;73.54;99957.41;5004831;28;20199;-68
2023/07/02 06:28:10;;;;;;;13.80;7.53;;;;;;;20.14;73.19;99962.38;5010522;28;20246;-68
2023/07/02 06:30:36;;;;;;;15.63;7.87;;;;;;;20.37;72.35;99964.28;5004108;28;20676;-68
2023/07/02 06:33:03;;;;;;;14.80;8.70;;;;;;;20.57;70.56;99965.41;5010881;28;20220;-68
2023/07/02 06:35:29;;;;;;;15.35;8.57;;;;;;;20.71;70.20;99967.63;5004992;28;20242;-68
2023/07/02 06:37:56;;;;;;;14.63;8.43;;;;;;;20.63;70.22;99967.00;5010673;28;20621;-68
2023/07/02 06:40:22;;;;;;;16.10;8.80;;;;;;;20.43;71.14;99972.22;5010048;28;20207;-68
2023/07/02 06:42:48;;;;;;;15.80;8.00;;;;;;;20.57;70.91;99967.22;5010616;28;20192;-68
2023/07/02 06:45:15;;;;;;;14.85;8.30;;;;;;;20.81;69.03;99971.78;5009098;28;20672;-68
2023/07/02 06:47:41;;;;;;;16.80;8.25;;;;;;;20.49;69.59;99978.25;5003439;28;20216;-67
2023/07/02 06:50:08;;;;;;;11.93;7.70;;;;;;;20.23;70.24;99976.38;5002085;28;20209;-67
2023/07/02 06:52:36;;;;;;;17.17;8.18;;;;;;;20.25;70.64;99977.22;5008848;28;20299;-68
2023/07/02 06:55:03;;;;;;;17.85;8.20;;;;;;;20.47;70.71;99977.44;5009863;28;20196;-68
2023/07/02 06:57:30;;;;;;;17.92;8.77;;;;;;;20.55;70.15;99983.44;5005851;28;20228;-67
2023/07/02 06:59:59;;;;;;;16.65;8.60;;;;;;;20.72;70.34;99990.91;5001689;28;20209;-68
2023/07/02 07:02:26;;;;;;;17.60;9.15;;;;;;;20.63;70.77;99988.53;4993505;28;20631;-67
2023/07/02 07:04:53;;;;;;;14.25;9.15;;;;;;;20.35;72.02;99994.81;4998662;28;20215;-67
2023/07/02 07:07:20;;;;;;;18.80;9.27;;;;;;;20.23;72.70;99989.84;5000294;28;20225;-67
2023/07/02 07:09:46;;;;;;;13.52;8.38;;;;;;;20.32;72.36;99994.03;5004817;28;20200;-68
2023/07/02 07:12:13;;;;;;;18.17;8.73;;;;;;;21.02;69.87;99999.72;4994384;28;20274;-67
2023/07/02 07:14:39;;;;;;;18.70;9.05;;;;;;;22.65;63.62;99992.53;4993232;28;20620;-67
2023/07/02 07:17:06;;;;;;;16.08;9.13;;;;;;;25.06;55.35;99992.00;4996891;28;20256;-67
2023/07/02 07:19:32;;;;;;;18.40;8.80;;;;;;;25.59;51.29;99987.28;5005028;28;20200;-67
2023/07/02 07:21:58;;;;;;;16.17;8.95;;;;;;;26.09;49.42;99990.88;4992079;28;20209;-67
2023/07/02 07:24:27;;;;;;;15.95;9.00;;;;;;;26.83;47.16;99981.09;4993104;28;20192;-68
2023/07/02 07:26:53;;;;;;;18.05;9.10;;;;;;;27.65;44.85;99985.19;4999103;28;20227;-67
2023/07/02 07:29:21;;;;;;;17.13;9.55;;;;;;;28.90;42.27;99987.81;4999872;28;20197;-67
2023/07/02 07:31:48;;;;;;;17.77;9.23;;;;;;;29.52;40.23;99979.81;4996733;28;20228;-67
2023/07/02 07:34:14;;;;;;;18.52;9.98;;;;;;;29.63;39.59;99979.94;4999961;28;20278;-68
2023/07/02 07:36:41;;;;;;;16.95;9.57;;;;;;;30.43;38.15;99986.78;5001922;28;20196;-68
2023/07/02 07:39:07;;;;;;;17.67;9.68;;;;;;;29.82;38.29;99985.81;5000678;28;20419;-67
2023/07/02 07:41:33;;;;;;;13.65;8.80;;;;;;;30.04;38.48;99987.03;4998452;28;20288;-67
2023/07/02 07:44:01;;;;;;;22.48;9.90;;;;;;;28.92;40.92;99991.31;4995152;28;20308;-67
2023/07/02 07:46:27;;;;;;;20.50;10.27;;;;;;;26.41;46.19;99998.06;5005006;28;20193;-67
2023/07/02 07:48:54;;;;;;;16.02;9.38;;;;;;;24.75;49.27;99995.38;5003840;28;20267;-67
2023/07/02 07:51:20;;;;;;;15.60;9.73;;;;;;;24.19;52.17;99994.53;4995981;28;20197;-68
2023/07/02 07:53:47;;;;;;;18.42;9.68;;;;;;;24.95;51.00;99992.53;4996621;28;20256;-67
2023/07/02 07:56:13;;;;;;;16.13;9.23;;;;;;;25.03;50.29;99993.03;4999399;28;20207;-68
2023/07/02 07:58:39;;;;;;;18.77;9.43;;;;;;;25.93;47.40;99993.56;5005701;28;20311;-68
2023/07/02 08:01:06;;;;;;;17.90;9.55;;;;;;;25.55;48.33;99987.53;4991626;28;20417;-67
2023/07/02 08:03:32;;;;;;;21.48;9.80;;;;;;;24.83;50.69;99999.47;4992865;28;20204;-67
2023/07/02 08:05:59;;;;;;;18.67;9.00;;;;;;;23.87;51.04;100001.47;5000270;28;20196;-67
2023/07/02 08:08:25;;;;;;;17.90;9.43;;;;;;;24.58;50.51;99990.81;5002337;28;20264;-67
2023/07/02 08:10:52;;;;;;;16.88;9.60;;;;;;;25.41;47.00;99998.25;4991674;28;20271;-67
2023/07/02 08:13:18;;;;;;;16.58;9.68;;;;;;;25.09;48.26;99995.41;4992482;28;20228;-67
2023/07/02 08:15:44;;;;;;;18.58;9.13;;;;;;;26.36;45.26;99997.47;5000194;28;20200;-67
2023/07/02 08:18:13;;;;;;;16.85;9.45;;;;;;;26.24;45.23;99996.31;5007618;28;20699;-67
2023/07/02 08:20:39;;;;;;;16.08;9.85;;;;;;;26.70;43.71;100001.81;5002722;28;20196;-67
2023/07/02 08:23:05;;;;;;;15.95;9.50;;;;;;;27.21;43.17;100001.50;5005897;28;20283;-67
2023/07/02 08:25:32;;;;;;;13.63;8.50;;;;;;;27.25;42.08;99997.66;4999320;28;20205;-67
2023/07/02 08:27:58;;;;;;;16.98;9.77;;;;;;;26.03;44.55;100000.25;4995524;28;20221;-67
2023/07/02 08:30:25;;;;;;;19.50;9.30;;;;;;;25.44;45.29;99990.81;4995525;28;20208;-68
2023/07/02 08:32:54;;;;;;;18.75;8.85;;;;;;;25.65;45.94;99991.50;5001782;28;20231;-67
2023/07/02 08:35:20;;;;;;;17.95;8.77;;;;;;;24.71;47.47;100005.50;5005332;28;20211;-67
2023/07/02 08:37:48;;;;;;;16.45;9.32;;;;;;;23.79;48.99;99995.56;5003893;28;20223;-67
2023/07/02 08:40:19;;;;;;;16.20;9.05;;;;;;;23.89;50.57;99994.16;5005873;28;20204;-67
2023/07/02 08:42:49;;;;;;;16.85;8.95;;;;;;;24.22;49.97;100004.31;5001332;28;20263;-67
2023/07/02 08:45:18;;;;;;;14.93;9.55;;;;;;;24.16;49.86;99997.38;5006745;28;20203;-67
2023/07/02 08:47:45;;;;;;;16.80;9.32;;;;;;;24.32;49.53;100006.53;5004368;28;20262;-67
2023/07/02 08:50:13;;;;;;;15.57;9.00;;;;;;;24.45;49.98;100004.13;5002464;28;20234;-68
2023/07/02 08:52:40;;;;;;;14.68;8.88;;;;;;;24.68;49.15;100009.22;5005380;28;20227;-68
2023/07/02 08:55:06;;;;;;;16.92;9.30;;;;;;;24.14;48.28;100001.13;5006132;28;20826;-68
2023/07/02 08:57:35;;;;;;;16.55;8.93;;;;;;;24.17;49.77;100003.66;5004455;28;20216;-68
2023/07/02 09:00:08;;;;;;;16.00;9.60;;;;;;;24.40;48.80;100011.56;5008461;28;20209;-68
2023/07/02 09:02:34;;;;;;;14.25;8.50;;;;;;;24.63;46.14;100011.31;5005008;28;20629;-68
2023/07/02 09:05:02;;;;;;;16.20;9.13;;;;;;;24.78;45.87;100008.75;5001623;28;21547;-68
2023/07/02 09:07:30;;;;;;;17.73;8.13;;;;;;;23.58;46.90;100007.34;5003730;28;21152;-68
2023/07/02 09:09:56;;;;;;;15.75;8.77;;;;;;;23.62;48.27;100011.72;5005735;28;20204;-68
2023/07/02 09:12:31;;;;;;;14.75;8.48;;;;;;;23.75;48.56;100012.88;5004658;28;20200;-68
2023/07/02 09:15:00;;;;;;;15.13;8.77;;;;;;;23.41;48.91;100014.41;5005424;28;20215;-68
2023/07/02 09:17:31;;;;;;;17.63;9.43;;;;;;;23.58;49.56;100010.06;5004460;28;20289;-68
2023/07/02 09:20:00;;;;;;;19.90;8.75;;;;;;;23.88;48.60;100010.47;5004729;28;20210;-68
2023/07/02 09:22:27;;;;;;;17.90;8.70;;;;;;;23.89;47.90;100018.50;5004807;28;20206;-68
2023/07/02 09:24:58;;;;;;;17.05;9.20;;;;;;;24.47;47.43;100023.88;5004389;28;20205;-68
2023/07/02 09:27:39;;;;;;;15.98;9.07;;;;;;;25.07;46.20;100020.84;5005149;28;20310;-68
2023/07/02 09:30:12;;;;;;;13.07;8.68;;;;;;;25.46;44.66;100036.84;5002346;28;20492;-68
2023/07/02 09:32:39;;;;;;;16.58;8.80;;;;;;;25.26;44.33;100027.94;5004376;28;20196;-68
2023/07/02 09:35:06;;;;;;;15.25;8.18;;;;;;;24.86;43.39;100031.81;5006245;28;20206;-68
2023/07/02 09:37:32;;;;;;;14.48;7.65;;;;;;;24.88;43.45;100035.31;5002471;28;20299;-68
2023/07/02 09:40:01;;;;;;;16.88;7.95;;;;;;;24.49;44.02;100030.06;5006209;28;20201;-68
2023/07/02 09:42:29;;;;;;;13.00;7.53;;;;;;;24.54;43.86;100027.13;5004511;28;20218;-68
2023/07/02 09:44:58;;;;;;;13.10;8.00;;;;;;;25.01;43.85;100032.88;5003669;28;20215;-68
2023/07/02 09:47:26;;;;;;;12.80;7.55;;;;;;;24.87;42.63;100036.28;5001906;28;21721;-68
2023/07/02 09:50:02;;;;;;;14.50;8.27;;;;;;;24.80;44.34;100032.09;4999212;28;20232;-68
2023/07/02 09:52:29;;;;;;;13.93;7.65;;;;;;;25.20;43.56;100028.25;5017167;22;20236;-67
2023/07/02 09:54:55;;;;;;;14.50;8.15;;;;;;;25.51;42.61;100037.47;5001493;28;20232;-67
2023/07/02 09:57:22;;;;;;;15.73;8.60;;;;;;;25.26;42.24;100030.66;5002827;28;20196;-67
2023/07/02 09:59:50;;;;;;;13.07;8.15;;;;;;;25.37;42.82;100035.50;5004132;28;20204;-67
2023/07/02 10:02:17;;;;;;;13.63;7.93;;;;;;;25.07;42.91;100043.41;5006640;28;20224;-67
2023/07/02 10:04:47;;;;;;;13.15;7.85;;;;;;;24.89;43.86;100036.19;5007369;28;20196;-67
2023/07/02 10:07:29;;;;;;;15.85;9.90;;;;;;;24.54;43.53;100033.44;5001308;28;20266;-67
2023/07/02 10:09:56;;;;;;;15.05;9.35;;;;;;;23.27;45.74;100037.59;5009677;28;20215;-67
2023/07/02 10:12:25;;;;;;;16.50;8.88;;;;;;;22.98;46.20;100031.63;5001035;28;20327;-67
2023/07/02 10:14:53;;;;;;;12.27;8.00;;;;;;;22.83;45.78;100037.69;5008083;28;20708;-67
2023/07/02 10:17:30;;;;;;;12.52;7.28;;;;;;;23.16;45.16;100031.75;5008812;28;20597;-67
2023/07/02 10:20:10;;;;;;;12.73;7.78;;;;;;;23.36;45.73;100020.97;5010077;28;20228;-68
2023/07/02 10:22:43;;;;;;;12.80;8.05;;;;;;;23.99;44.59;100029.75;5007863;28;20223;-67
2023/07/02 10:25:10;;;;;;;14.43;8.10;;;;;;;23.92;44.62;100029.19;5010547;28;20196;-66
2023/07/02 10:27:38;;;;;;;14.32;7.50;;;;;;;24.03;44.05;100029.56;5011280;28;20203;-67
2023/07/02 10:30:06;;;;;;;16.95;8.43;;;;;;;24.28;44.63;100023.00;5010778;28;20192;-67
2023/07/02 10:32:34;;;;;;;16.08;9.52;;;;;;;23.90;42.95;100031.09;5007705;28;20220;-66
2023/07/02 10:35:04;;;;;;;12.63;7.80;;;;;;;23.73;41.95;100021.06;5006126;28;20230;-66
2023/07/02 10:37:37;;;;;;;15.25;7.90;;;;;;;24.29;42.43;100020.22;5006907;28;20664;-66
2023/07/02 10:40:08;;;;;;;14.57;8.43;;;;;;;25.21;41.43;100016.44;5007273;28;20208;-65
2023/07/02 10:42:51;;;;;;;15.15;8.15;;;;;;;24.62;40.83;100024.91;5004784;28;20727;-66
2023/07/02 10:45:19;;;;;;;13.95;8.27;;;;;;;24.57;41.04;100033.28;5007353;28;20192;-64
2023/07/02 10:47:46;;;;;;;15.32;8.52;;;;;;;23.64;42.52;100026.03;5003066;28;20676;-65
2023/07/02 10:50:20;;;;;;;14.07;9.88;;;;;;;23.77;43.79;100029.91;5008950;28;20199;-65
2023/07/02 10:52:50;;;;;;;15.60;8.27;;;;;;;23.50;44.42;100037.41;5007783;28;20227;-65
2023/07/02 10:55:22;;;;;;;15.00;9.10;;;;;;;23.41;44.72;100037.84;5004046;28;20196;-65
2023/07/02 10:57:53;;;;;;;15.27;8.98;;;;;;;23.57;43.20;100038.94;5020541;28;20204;-64
2023/07/02 11:00:19;;;;;;;14.23;8.95;;;;;;;24.24;43.69;100035.78;5007286;28;20208;-65
2023/07/02 11:02:46;;;;;;;17.92;8.98;;;;;;;24.85;41.10;100045.44;5009071;28;20224;-65
2023/07/02 11:05:14;;;;;;;17.60;9.32;;;;;;;24.91;39.97;100035.16;5001594;28;20593;-65
2023/07/02 11:07:42;;;;;;;16.63;9.13;;;;;;;25.23;40.10;100033.53;5009132;28;20565;-65
2023/07/02 11:10:17;;;;;;;15.15;9.40;;;;;;;25.36;39.17;100030.16;5008405;28;20299;-65
2023/07/02 11:12:43;;;;;;;16.25;9.48;;;;;;;25.42;38.12;100040.69;5003975;28;20236;-65
2023/07/02 11:15:12;;;;;;;16.67;9.20;;;;;;;25.58;37.47;100042.47;5007797;28;20212;-65
2023/07/02 11:17:41;;;;;;;16.83;9.07;;;;;;;25.15;37.99;100037.56;5003790;28;20231;-65
2023/07/02 11:20:09;;;;;;;16.08;9.70;;;;;;;24.88;38.30;100037.16;5002199;28;20197;-65
2023/07/02 11:22:37;;;;;;;20.55;9.80;;;;;;;24.63;38.63;100030.25;5004912;28;20248;-65
2023/07/02 11:25:16;;;;;;;18.40;9.25;;;;;;;24.53;38.75;100039.81;5007833;28;20196;-65